createdAt,value
2023-05-03T00:02:07.967Z,4.03
2023-05-03T00:04:36.696Z,3.90
2023-05-03T00:07:06.872Z,3.33
2023-05-03T00:09:35.792Z,4.03
2023-05-03T00:12:06.143Z,5.47
2023-05-03T00:14:34.788Z,3.20
2023-05-03T00:17:03.362Z,3.30
2023-05-03T00:19:33.793Z,3.42
2023-05-03T00:22:02.364Z,3.50
2023-05-03T00:24:32.301Z,2.70
2023-05-03T00:27:00.885Z,4.20
2023-05-03T00:29:29.455Z,3.70
2023-05-03T00:32:00.840Z,4.25
2023-05-03T00:34:29.543Z,4.00
2023-05-03T00:36:58.077Z,4.38
2023-05-03T00:39:26.852Z,4.00
2023-05-03T00:41:59.448Z,3.70
2023-05-03T00:44:28.016Z,3.80
2023-05-03T00:46:57.871Z,3.75
2023-05-03T00:49:26.947Z,4.45
2023-05-03T00:51:55.690Z,4.78
2023-05-03T00:54:24.649Z,4.43
2023-05-03T00:56:53.288Z,3.60
2023-05-03T00:59:23.547Z,3.70
2023-05-03T01:01:53.880Z,3.88
2023-05-03T01:04:24.219Z,4.47
2023-05-03T01:07:00.727Z,3.67
2023-05-03T01:09:36.428Z,3.55
2023-05-03T01:12:15.884Z,4.88
2023-05-03T01:15:09.603Z,4.53
2023-05-03T01:17:43.355Z,5.00
2023-05-03T01:20:15.349Z,3.95
2023-05-03T01:22:48.402Z,4.57
2023-05-03T01:25:18.487Z,5.85
2023-05-03T01:27:46.981Z,3.92
2023-05-03T01:30:15.867Z,3.72
2023-05-03T01:32:56.190Z,3.97
2023-05-03T01:35:30.489Z,4.85
2023-05-03T01:37:59.960Z,3.15
2023-05-03T01:40:32.072Z,3.67
2023-05-03T01:43:04.272Z,4.38
2023-05-03T01:45:32.943Z,4.25
2023-05-03T01:48:01.637Z,3.88
2023-05-03T01:50:30.283Z,5.15
2023-05-03T01:52:58.929Z,4.15
2023-05-03T01:55:31.919Z,3.30
2023-05-03T01:58:00.788Z,3.50
2023-05-03T02:00:29.462Z,3.55
2023-05-03T02:02:58.375Z,3.90
2023-05-03T02:05:27.148Z,4.57
2023-05-03T02:07:56.008Z,4.50
2023-05-03T02:10:25.395Z,4.00
2023-05-03T02:12:58.871Z,4.28
2023-05-03T02:15:27.625Z,4.32
2023-05-03T02:17:58.588Z,5.32
2023-05-03T02:20:27.245Z,4.57
2023-05-03T02:22:56.084Z,4.38
2023-05-03T02:25:26.914Z,4.00
2023-05-03T02:27:56.116Z,4.10
2023-05-03T02:30:26.415Z,3.70
2023-05-03T02:32:55.013Z,4.15
2023-05-03T02:35:23.667Z,4.50
2023-05-03T02:37:52.502Z,3.97
2023-05-03T02:40:21.786Z,4.00
2023-05-03T02:45:38.567Z,5.47
2023-05-03T02:48:07.735Z,4.40
2023-05-03T02:50:37.022Z,3.90
2023-05-03T02:53:05.716Z,4.30
2023-05-03T02:55:34.365Z,5.80
2023-05-03T02:58:03.465Z,3.92
2023-05-03T03:00:32.250Z,4.25
2023-05-03T03:03:02.431Z,3.90
2023-05-03T03:05:31.258Z,4.78
2023-05-03T03:07:59.875Z,4.13
2023-05-03T03:10:29.384Z,5.20
2023-05-03T03:12:58.293Z,4.97
2023-05-03T03:15:33.967Z,3.80
2023-05-03T03:18:04.105Z,4.40
2023-05-03T03:20:32.912Z,3.60
2023-05-03T03:23:01.786Z,4.35
2023-05-03T03:25:30.458Z,3.83
2023-05-03T03:28:00.793Z,4.22
2023-05-03T03:30:30.438Z,4.63
2023-05-03T03:33:19.386Z,4.22
2023-05-03T03:35:48.626Z,4.43
2023-05-03T03:38:18.848Z,5.55
2023-05-03T03:40:57.964Z,4.00
2023-05-03T03:43:26.818Z,4.95
2023-05-03T03:45:55.415Z,4.20
2023-05-03T03:48:25.889Z,4.22
2023-05-03T03:50:56.446Z,3.50
2023-05-03T03:53:31.211Z,3.67
2023-05-03T03:55:59.739Z,4.25
2023-05-03T03:58:28.349Z,4.47
2023-05-03T04:00:57.890Z,4.60
2023-05-03T04:03:29.537Z,5.15
2023-05-03T04:05:58.999Z,3.92
2023-05-03T04:08:28.791Z,4.47
2023-05-03T04:10:57.565Z,4.47
2023-05-03T04:13:28.033Z,4.28
2023-05-03T04:15:58.327Z,4.45
2023-05-03T04:18:29.506Z,5.97
2023-05-03T04:21:00.014Z,4.18
2023-05-03T04:23:29.426Z,4.28
2023-05-03T04:25:58.000Z,4.20
2023-05-03T04:28:28.114Z,5.15
2023-05-03T04:31:00.150Z,3.83
2023-05-03T04:33:31.321Z,4.72
2023-05-03T04:36:04.496Z,4.53
2023-05-03T04:38:34.447Z,4.28
2023-05-03T04:41:06.608Z,4.50
2023-05-03T04:43:35.405Z,5.80
2023-05-03T04:46:04.981Z,4.32
2023-05-03T04:48:39.252Z,4.43
2023-05-03T04:51:07.734Z,4.95
2023-05-03T04:53:36.713Z,5.18
2023-05-03T04:56:10.573Z,4.40
2023-05-03T04:58:41.620Z,4.47
2023-05-03T05:01:10.710Z,4.63
2023-05-03T05:03:41.198Z,4.32
2023-05-03T05:06:16.548Z,5.10
2023-05-03T05:08:45.638Z,4.53
2023-05-03T05:11:16.798Z,4.03
2023-05-03T05:13:46.646Z,4.10
2023-05-03T05:16:15.817Z,4.80
2023-05-03T05:18:51.486Z,4.95
2023-05-03T05:21:24.444Z,5.15
2023-05-03T05:23:54.351Z,4.28
2023-05-03T05:26:22.987Z,5.10
2023-05-03T05:28:51.987Z,5.32
2023-05-03T05:31:22.030Z,5.65
2023-05-03T05:33:52.268Z,4.85
2023-05-03T05:36:21.125Z,7.43
2023-05-03T05:38:51.625Z,9.90
2023-05-03T05:41:21.262Z,8.43
2023-05-03T05:43:49.993Z,27.10
2023-05-03T05:46:21.209Z,16.58
2023-05-03T05:48:52.548Z,18.83
2023-05-03T05:51:22.019Z,51.78
2023-05-03T05:53:50.903Z,35.35
2023-05-03T05:56:21.681Z,25.90
2023-05-03T05:58:50.923Z,44.15
2023-05-03T06:01:20.045Z,37.10
2023-05-03T06:03:48.753Z,43.50
2023-05-03T06:06:19.081Z,23.80
2023-05-03T06:08:52.031Z,30.50
2023-05-03T06:11:22.581Z,22.98
2023-05-03T06:13:51.508Z,21.38
2023-05-03T06:16:21.904Z,16.80
2023-05-03T06:18:51.556Z,14.70
2023-05-03T06:21:22.564Z,14.98
2023-05-03T06:23:51.240Z,11.45
2023-05-03T06:26:19.866Z,9.60
2023-05-03T06:28:48.647Z,10.10
2023-05-03T06:31:17.596Z,12.65
2023-05-03T06:33:47.725Z,10.57
2023-05-03T06:36:17.164Z,12.35
2023-05-03T06:38:47.292Z,8.48
2023-05-03T06:41:16.206Z,9.68
2023-05-03T06:43:45.113Z,6.85
2023-05-03T06:46:14.297Z,10.27
2023-05-03T06:48:43.100Z,7.45
2023-05-03T06:51:12.265Z,7.80
2023-05-03T06:53:40.925Z,10.27
2023-05-03T06:56:12.038Z,8.70
2023-05-03T06:58:40.950Z,5.63
2023-05-03T07:01:09.893Z,6.95
2023-05-03T07:03:41.650Z,7.82
2023-05-03T07:06:11.428Z,6.05
2023-05-03T07:08:40.552Z,4.93
2023-05-03T07:11:11.064Z,7.43
2023-05-03T07:13:40.173Z,5.65
2023-05-03T07:16:09.137Z,5.88
2023-05-03T07:18:37.714Z,6.85
2023-05-03T07:21:08.665Z,5.63
2023-05-03T07:23:38.430Z,5.78
2023-05-03T07:26:07.091Z,6.82
2023-05-03T07:28:37.171Z,4.95
2023-05-03T07:31:05.811Z,5.13
2023-05-03T07:33:37.782Z,3.97
2023-05-03T07:36:07.490Z,4.45
2023-05-03T07:38:36.093Z,4.97
2023-05-03T07:41:04.756Z,4.38
2023-05-03T07:43:33.474Z,7.00
2023-05-03T07:46:04.156Z,6.80
2023-05-03T07:48:34.494Z,5.13
2023-05-03T07:51:05.065Z,5.57
2023-05-03T07:53:35.298Z,6.75
2023-05-03T07:56:04.069Z,5.35
2023-05-03T07:58:40.087Z,4.40
2023-05-03T08:01:13.650Z,8.35
2023-05-03T08:03:43.769Z,5.18
2023-05-03T08:06:12.532Z,5.80
2023-05-03T08:08:42.389Z,4.88
2023-05-03T08:11:11.169Z,5.35
2023-05-03T08:13:41.426Z,3.80
2023-05-03T08:16:12.618Z,4.65
2023-05-03T08:18:42.513Z,5.22
2023-05-03T08:21:13.508Z,5.15
2023-05-03T08:23:42.490Z,4.38
2023-05-03T08:26:11.110Z,5.60
2023-05-03T08:28:39.730Z,4.13
2023-05-03T08:31:08.569Z,4.25
2023-05-03T08:33:41.936Z,6.68
2023-05-03T08:36:10.562Z,4.30
2023-05-03T08:38:41.886Z,5.18
2023-05-03T08:41:20.106Z,4.68
2023-05-03T08:43:54.131Z,4.82
2023-05-03T08:46:23.188Z,4.45
2023-05-03T08:48:56.869Z,5.10
2023-05-03T08:51:29.053Z,6.03
2023-05-03T08:53:57.844Z,5.00
2023-05-03T08:56:31.111Z,4.93
2023-05-03T08:59:07.323Z,4.30
2023-05-03T09:01:37.608Z,4.32
2023-05-03T09:04:13.005Z,5.70
2023-05-03T09:06:42.161Z,5.47
2023-05-03T09:09:11.057Z,5.30
2023-05-03T09:11:40.214Z,4.88
2023-05-03T09:14:13.191Z,4.47
2023-05-03T09:16:44.583Z,4.65
2023-05-03T09:19:16.328Z,5.60
2023-05-03T09:21:47.031Z,5.25
2023-05-03T09:24:17.102Z,5.15
2023-05-03T09:26:47.196Z,4.82
2023-05-03T09:29:30.057Z,5.03
2023-05-03T09:32:05.416Z,6.13
2023-05-03T09:34:37.263Z,6.25
2023-05-03T09:37:10.222Z,5.63
2023-05-03T09:39:38.694Z,5.43
2023-05-03T09:42:15.458Z,6.22
2023-05-03T09:44:51.521Z,4.75
2023-05-03T09:47:21.514Z,4.97
2023-05-03T09:49:51.325Z,5.43
2023-05-03T09:52:23.404Z,4.35
2023-05-03T09:54:55.534Z,6.15
2023-05-03T09:57:24.522Z,6.80
2023-05-03T09:59:53.293Z,6.50
2023-05-03T10:02:22.581Z,4.03
2023-05-03T10:04:53.768Z,4.93
2023-05-03T10:07:24.239Z,5.25
2023-05-03T10:09:52.934Z,4.97
2023-05-03T10:12:23.588Z,4.78
2023-05-03T10:14:55.549Z,4.53
2023-05-03T10:17:45.600Z,5.03
2023-05-03T10:20:24.714Z,5.55
2023-05-03T10:23:09.999Z,5.40
2023-05-03T10:25:40.058Z,4.40
2023-05-03T10:28:10.153Z,5.63
2023-05-03T10:30:40.869Z,4.82
2023-05-03T10:33:33.888Z,5.40
2023-05-03T10:36:10.612Z,5.25
2023-05-03T10:38:43.750Z,6.07
2023-05-03T10:41:12.563Z,4.65
2023-05-03T10:43:46.485Z,5.90
2023-05-03T10:46:34.268Z,4.35
2023-05-03T10:49:21.623Z,3.75
2023-05-03T10:51:51.933Z,5.18
2023-05-03T10:54:20.748Z,5.40
2023-05-03T10:56:54.311Z,5.53
2023-05-03T10:59:25.467Z,5.45
2023-05-03T11:01:54.523Z,4.43
2023-05-03T11:04:46.732Z,5.25
2023-05-03T11:07:22.869Z,3.83
2023-05-03T11:09:51.911Z,5.18
2023-05-03T11:12:21.128Z,4.88
2023-05-03T11:14:51.738Z,4.97
2023-05-03T11:17:21.621Z,4.78
2023-05-03T11:19:51.562Z,3.53
2023-05-03T11:22:22.377Z,5.75
2023-05-03T11:24:51.860Z,5.18
2023-05-03T11:27:25.141Z,4.20
2023-05-03T11:29:58.641Z,3.67
2023-05-03T11:32:31.445Z,4.78
2023-05-03T11:35:03.867Z,4.18
2023-05-03T11:37:34.636Z,3.90
2023-05-03T11:40:05.070Z,5.10
2023-05-03T11:42:33.897Z,4.63
2023-05-03T11:45:04.248Z,4.40
2023-05-03T11:47:33.555Z,4.50
2023-05-03T11:50:02.448Z,5.20
2023-05-03T11:52:31.087Z,5.10
2023-05-03T11:55:05.619Z,5.78
2023-05-03T11:57:37.554Z,4.93
2023-05-03T12:00:17.339Z,4.90
2023-05-03T12:02:49.594Z,5.03
2023-05-03T12:05:19.143Z,4.82
2023-05-03T12:07:48.970Z,3.80
2023-05-03T12:10:23.461Z,5.05
2023-05-03T12:12:56.107Z,3.63
2023-05-03T12:15:30.361Z,4.10
2023-05-03T12:18:00.940Z,4.28
2023-05-03T12:23:05.251Z,4.53
2023-05-03T12:25:45.046Z,4.55
2023-05-03T12:28:20.480Z,3.95
2023-05-03T12:30:52.906Z,5.75
2023-05-03T12:33:23.093Z,3.67
2023-05-03T12:35:54.163Z,3.13
2023-05-03T12:38:25.220Z,4.97
2023-05-03T12:40:55.749Z,3.60
2023-05-03T12:43:24.411Z,5.18
2023-05-03T12:46:16.581Z,3.75
2023-05-03T12:48:46.165Z,3.60
2023-05-03T12:53:48.008Z,4.32
2023-05-03T12:56:18.281Z,4.00
2023-05-03T13:02:19.242Z,5.55
2023-05-03T13:04:40.703Z,4.47
2023-05-03T13:07:00.488Z,4.68
2023-05-03T13:10:12.209Z,6.88
2023-05-03T13:12:20.813Z,4.68
2023-05-03T13:14:49.958Z,4.78
2023-05-03T13:17:20.421Z,4.00
2023-05-03T13:19:49.533Z,3.85
2023-05-03T13:22:18.891Z,3.95
2023-05-03T13:24:48.409Z,3.58
2023-05-03T13:27:21.738Z,5.85
2023-05-03T13:29:50.406Z,4.10
2023-05-03T13:32:20.354Z,4.03
2023-05-03T13:34:50.113Z,6.38
2023-05-03T13:37:19.355Z,4.28
2023-05-03T13:39:48.201Z,3.85
2023-05-03T13:42:16.629Z,4.90
2023-05-03T13:44:48.058Z,4.38
2023-05-03T13:47:18.936Z,5.50
2023-05-03T13:49:47.301Z,4.40
2023-05-03T13:52:15.919Z,4.95
2023-05-03T13:54:44.522Z,4.40
2023-05-03T13:57:13.003Z,5.10
2023-05-03T13:59:41.573Z,4.63
2023-05-03T14:02:11.967Z,4.88
2023-05-03T14:04:42.269Z,4.90
2023-05-03T14:07:13.472Z,4.40
2023-05-03T14:09:42.346Z,4.78
2023-05-03T14:12:11.054Z,4.93
2023-05-03T14:14:39.929Z,5.10
2023-05-03T14:17:08.907Z,5.60
2023-05-03T14:19:39.165Z,4.70
2023-05-03T14:22:08.213Z,4.40
2023-05-03T14:24:37.361Z,5.63
2023-05-03T14:27:06.784Z,4.65
2023-05-03T14:29:35.391Z,4.50
2023-05-03T14:32:04.046Z,4.57
2023-05-03T14:34:32.820Z,4.70
2023-05-03T14:37:05.284Z,4.90
2023-05-03T14:39:35.608Z,5.38
2023-05-03T14:42:04.317Z,5.43
2023-05-03T14:44:33.122Z,5.20
2023-05-03T14:47:03.361Z,5.38
2023-05-03T14:49:37.237Z,5.68
2023-05-03T14:52:07.616Z,4.75
2023-05-03T14:54:36.072Z,3.92
2023-05-03T14:57:05.160Z,6.40
2023-05-03T14:59:34.289Z,4.03
2023-05-03T15:02:03.304Z,4.10
2023-05-03T15:04:31.923Z,5.65
2023-05-03T15:07:01.545Z,5.45
2023-05-03T15:09:31.826Z,3.83
2023-05-03T15:12:02.038Z,5.63
2023-05-03T15:14:49.406Z,4.28
2023-05-03T15:17:18.503Z,4.13
2023-05-03T15:19:47.978Z,3.95
2023-05-03T15:22:17.101Z,5.07
2023-05-03T15:24:47.317Z,4.05
2023-05-03T15:27:15.891Z,4.15
2023-05-03T15:29:44.554Z,5.07
2023-05-03T15:32:13.163Z,5.70
2023-05-03T15:34:41.829Z,4.68
2023-05-03T15:37:12.372Z,6.38
2023-05-03T15:39:41.238Z,5.55
2023-05-03T15:42:11.306Z,3.95
2023-05-03T15:44:40.122Z,4.55
2023-05-03T15:47:08.753Z,4.05
2023-05-03T15:49:37.263Z,5.18
2023-05-03T15:52:07.710Z,4.90
2023-05-03T15:54:37.716Z,4.50
2023-05-03T15:57:06.445Z,4.43
2023-05-03T15:59:36.353Z,4.30
2023-05-03T16:02:05.343Z,4.32
2023-05-03T16:04:34.028Z,4.03
2023-05-03T16:07:02.463Z,5.95
2023-05-03T16:09:31.167Z,5.07
2023-05-03T16:12:00.461Z,3.58
2023-05-03T16:14:29.355Z,4.85
2023-05-03T16:17:00.346Z,4.63
2023-05-03T16:19:28.961Z,4.05
2023-05-03T16:21:57.523Z,3.70
2023-05-03T16:24:26.228Z,4.45
2023-05-03T16:26:54.856Z,4.82
2023-05-03T16:29:23.434Z,4.65
2023-05-03T16:31:52.706Z,6.22
2023-05-03T16:34:22.953Z,4.40
2023-05-03T16:36:51.477Z,5.30
2023-05-03T16:39:20.173Z,6.65
2023-05-03T16:41:48.697Z,5.18
2023-05-03T16:44:18.536Z,4.80
2023-05-03T16:46:48.723Z,5.35
2023-05-03T16:49:18.466Z,4.63
2023-05-03T16:51:48.493Z,5.40
2023-05-03T16:54:19.090Z,4.07
2023-05-03T16:56:56.883Z,4.15
2023-05-03T16:59:28.540Z,3.53
2023-05-03T17:01:56.967Z,4.68
2023-05-03T17:04:25.422Z,4.07
2023-05-03T17:06:56.164Z,5.45
2023-05-03T17:09:24.837Z,3.63
2023-05-03T17:11:53.613Z,3.97
2023-05-03T17:14:22.260Z,4.93
2023-05-03T17:16:51.485Z,3.95
2023-05-03T17:19:20.837Z,4.72
2023-05-03T17:21:49.308Z,4.00
2023-05-03T17:24:19.592Z,3.30
2023-05-03T17:26:49.690Z,4.70
2023-05-03T17:29:18.269Z,5.13
2023-05-03T17:31:46.919Z,5.20
2023-05-03T17:34:15.889Z,4.95
2023-05-03T17:36:44.450Z,3.58
2023-05-03T17:39:13.205Z,5.07
2023-05-03T17:41:43.147Z,5.43
2023-05-03T17:44:12.488Z,4.43
2023-05-03T17:46:41.575Z,5.13
2023-05-03T17:49:10.784Z,4.18
2023-05-03T17:51:40.097Z,4.10
2023-05-03T17:54:09.034Z,4.15
2023-05-03T17:56:37.723Z,4.10
2023-05-03T17:59:08.099Z,6.05
2023-05-03T18:01:36.779Z,4.28
2023-05-03T18:04:05.829Z,4.75
2023-05-03T18:06:34.808Z,4.45
2023-05-03T18:09:07.183Z,4.30
2023-05-03T18:11:35.737Z,4.00
2023-05-03T18:14:04.295Z,3.88
2023-05-03T18:16:34.208Z,3.80
2023-05-03T18:19:03.677Z,4.78
2023-05-03T18:21:33.598Z,4.22
2023-05-03T18:24:02.398Z,5.13
2023-05-03T18:26:31.017Z,3.88
2023-05-03T18:28:59.950Z,4.28
2023-05-03T18:31:28.642Z,4.40
2023-05-03T18:33:58.856Z,4.07
2023-05-03T18:36:27.468Z,4.13
2023-05-03T18:38:56.170Z,3.55
2023-05-03T18:41:27.354Z,5.03
2023-05-03T18:43:58.002Z,4.38
2023-05-03T18:46:27.068Z,4.03
2023-05-03T18:48:55.844Z,4.20
2023-05-03T18:51:25.845Z,4.55
2023-05-03T18:53:54.428Z,4.63
2023-05-03T18:56:22.993Z,3.47
2023-05-03T18:58:51.624Z,4.03
2023-05-03T19:01:20.242Z,4.78
2023-05-03T19:03:48.963Z,5.00
2023-05-03T19:06:17.979Z,3.90
2023-05-03T19:08:49.516Z,4.88
2023-05-03T19:11:18.353Z,4.57
2023-05-03T19:13:47.531Z,3.80
2023-05-03T19:16:16.583Z,4.72
2023-05-03T19:18:45.494Z,3.95
2023-05-03T19:21:17.315Z,4.75
2023-05-03T19:23:47.685Z,4.72
2023-05-03T19:26:16.446Z,5.28
2023-05-03T19:28:45.233Z,4.43
2023-05-03T19:31:14.025Z,4.70
2023-05-03T19:33:42.718Z,3.40
2023-05-03T19:36:14.788Z,3.60
2023-05-03T19:38:43.592Z,3.50
2023-05-03T19:41:13.610Z,4.05
2023-05-03T19:43:42.713Z,2.60
2023-05-03T19:46:11.894Z,3.65
2023-05-03T19:48:40.507Z,3.40
2023-05-03T19:51:14.575Z,4.85
2023-05-03T19:53:43.208Z,3.08
2023-05-03T19:56:15.025Z,3.92
2023-05-03T19:58:43.815Z,4.57
2023-05-03T20:01:12.582Z,4.43
2023-05-03T20:03:42.511Z,2.97
2023-05-03T20:06:11.479Z,4.05
2023-05-03T20:08:40.138Z,3.22
2023-05-03T20:11:08.769Z,3.85
2023-05-03T20:13:38.888Z,4.18
2023-05-03T20:16:08.422Z,3.75
2023-05-03T20:18:37.130Z,3.50
2023-05-03T20:21:05.739Z,3.92
2023-05-03T20:23:34.258Z,3.78
2023-05-03T20:26:02.872Z,3.50
2023-05-03T20:28:32.562Z,3.42
2023-05-03T20:31:02.713Z,3.10
2023-05-03T20:33:31.356Z,3.40
2023-05-03T20:35:59.917Z,3.40
2023-05-03T20:38:28.411Z,4.25
2023-05-03T20:40:56.911Z,4.85
2023-05-03T20:43:25.401Z,3.85
2023-05-03T20:45:54.469Z,3.25
2023-05-03T20:48:24.503Z,3.63
2023-05-03T20:50:53.036Z,3.42
2023-05-03T20:53:21.642Z,3.80
2023-05-03T20:55:56.427Z,3.20
2023-05-03T20:58:25.312Z,3.83
2023-05-03T21:00:56.890Z,3.30
2023-05-03T21:03:28.052Z,3.42
2023-05-03T21:05:57.456Z,3.75
2023-05-03T21:08:26.026Z,3.28
2023-05-03T21:10:55.099Z,3.55
2023-05-03T21:13:23.737Z,4.38
2023-05-03T21:15:52.294Z,3.33
2023-05-03T21:18:20.988Z,3.63
2023-05-03T21:20:50.895Z,2.97
2023-05-03T21:23:19.389Z,3.38
2023-05-03T21:25:47.965Z,3.25
2023-05-03T21:28:16.601Z,2.72
2023-05-03T21:30:48.304Z,2.97
2023-05-03T21:33:18.118Z,3.75
2023-05-03T21:35:46.619Z,3.55
2023-05-03T21:38:17.738Z,4.40
2023-05-03T21:40:47.076Z,2.50
2023-05-03T21:43:18.334Z,4.30
2023-05-03T21:45:48.281Z,3.78
2023-05-03T21:48:16.861Z,3.58
2023-05-03T21:50:46.056Z,3.13
2023-05-03T21:53:16.099Z,3.90
2023-05-03T21:55:46.548Z,3.80
2023-05-03T21:58:15.188Z,3.08
2023-05-03T22:00:44.355Z,2.58
2023-05-03T22:03:14.934Z,2.97
2023-05-03T22:05:47.839Z,4.15
2023-05-03T22:08:20.438Z,3.53
2023-05-03T22:10:48.915Z,2.75
2023-05-03T22:13:18.012Z,2.45
2023-05-03T22:15:46.681Z,3.22
2023-05-03T22:18:15.210Z,3.97
2023-05-03T22:20:43.771Z,3.30
2023-05-03T22:23:12.419Z,3.65
2023-05-03T22:25:42.553Z,3.58
2023-05-03T22:28:11.347Z,3.22
2023-05-03T22:30:39.849Z,3.38
2023-05-03T22:33:08.484Z,3.00
2023-05-03T22:35:37.046Z,3.00
2023-05-03T22:38:06.444Z,5.05
2023-05-03T22:40:34.935Z,3.00
2023-05-03T22:43:06.048Z,3.05
2023-05-03T22:45:34.766Z,2.83
2023-05-03T22:48:03.492Z,4.18
2023-05-03T22:50:32.034Z,2.90
2023-05-03T22:53:00.841Z,4.05
2023-05-03T22:55:29.354Z,3.60
2023-05-03T22:58:02.268Z,3.20
2023-05-03T23:00:32.436Z,3.45
2023-05-03T23:03:01.534Z,3.70
2023-05-03T23:05:30.430Z,3.40
2023-05-03T23:07:58.948Z,3.65
2023-05-03T23:10:27.608Z,3.60
2023-05-03T23:12:56.335Z,4.13
2023-05-03T23:15:25.072Z,2.40
2023-05-03T23:17:54.988Z,3.33
2023-05-03T23:20:23.516Z,4.10
2023-05-03T23:22:52.081Z,3.33
2023-05-03T23:25:20.727Z,3.55
2023-05-03T23:27:49.584Z,3.10
2023-05-03T23:30:18.594Z,4.32
2023-05-03T23:32:47.686Z,5.10
2023-05-03T23:35:18.295Z,2.92
2023-05-03T23:37:46.860Z,3.65
2023-05-03T23:40:15.429Z,4.43
2023-05-03T23:42:46.308Z,3.78
2023-05-03T23:45:14.903Z,3.53
2023-05-03T23:47:44.639Z,2.78
2023-05-03T23:50:14.029Z,3.40
2023-05-03T23:52:44.129Z,2.88
2023-05-03T23:55:12.838Z,3.30
2023-05-03T23:57:41.457Z,3.45
